sensor_id;sensor_type;location;lat;lon;timestamp;P1;durP1;ratioP1;P2;durP2;ratioP2
28629;SDS011;15817;42.130;24.762;2022-11-15T00:00:13;37.90;;;24.88;;
28629;SDS011;15817;42.130;24.762;2022-11-15T00:02:58;34.80;;;24.40;;
28629;SDS011;15817;42.130;24.762;2022-11-15T00:05:43;34.22;;;24.58;;
28629;SDS011;15817;42.130;24.762;2022-11-15T00:08:31;32.28;;;24.13;;
28629;SDS011;15817;42.130;24.762;2022-11-15T00:11:16;35.25;;;25.20;;
28629;SDS011;15817;42.130;24.762;2022-11-15T00:14:01;36.72;;;26.50;;
28629;SDS011;15817;42.130;24.762;2022-11-15T00:16:48;35.45;;;25.52;;
28629;SDS011;15817;42.130;24.762;2022-11-15T00:19:33;36.08;;;25.17;;
28629;SDS011;15817;42.130;24.762;2022-11-15T00:22:20;40.13;;;26.33;;
28629;SDS011;15817;42.130;24.762;2022-11-15T00:25:24;37.50;;;25.92;;
28629;SDS011;15817;42.130;24.762;2022-11-15T00:28:10;37.22;;;25.15;;
28629;SDS011;15817;42.130;24.762;2022-11-15T00:31:01;35.42;;;25.10;;
28629;SDS011;15817;42.130;24.762;2022-11-15T00:33:47;35.92;;;25.25;;
28629;SDS011;15817;42.130;24.762;2022-11-15T00:36:37;37.22;;;25.77;;
28629;SDS011;15817;42.130;24.762;2022-11-15T00:39:27;40.97;;;25.73;;
28629;SDS011;15817;42.130;24.762;2022-11-15T00:42:14;34.72;;;25.35;;
28629;SDS011;15817;42.130;24.762;2022-11-15T00:45:01;40.70;;;26.48;;
28629;SDS011;15817;42.130;24.762;2022-11-15T00:47:54;37.22;;;28.05;;
28629;SDS011;15817;42.130;24.762;2022-11-15T00:50:39;39.55;;;27.60;;
28629;SDS011;15817;42.130;24.762;2022-11-15T00:53:24;37.03;;;25.88;;
28629;SDS011;15817;42.130;24.762;2022-11-15T00:56:08;38.40;;;27.40;;
28629;SDS011;15817;42.130;24.762;2022-11-15T00:58:55;37.08;;;26.88;;
28629;SDS011;15817;42.130;24.762;2022-11-15T01:01:42;39.42;;;28.08;;
28629;SDS011;15817;42.130;24.762;2022-11-15T01:04:27;38.72;;;28.70;;
28629;SDS011;15817;42.130;24.762;2022-11-15T01:07:11;36.67;;;27.20;;
28629;SDS011;15817;42.130;24.762;2022-11-15T01:09:55;39.40;;;28.15;;
28629;SDS011;15817;42.130;24.762;2022-11-15T01:12:40;38.63;;;26.92;;
28629;SDS011;15817;42.130;24.762;2022-11-15T01:15:31;42.10;;;26.52;;
28629;SDS011;15817;42.130;24.762;2022-11-15T01:18:15;45.50;;;28.13;;
28629;SDS011;15817;42.130;24.762;2022-11-15T01:21:04;38.85;;;27.63;;
28629;SDS011;15817;42.130;24.762;2022-11-15T01:23:54;36.65;;;24.98;;
28629;SDS011;15817;42.130;24.762;2022-11-15T01:26:40;36.33;;;24.17;;
28629;SDS011;15817;42.130;24.762;2022-11-15T01:29:24;36.38;;;24.27;;
28629;SDS011;15817;42.130;24.762;2022-11-15T01:32:09;32.47;;;23.83;;
28629;SDS011;15817;42.130;24.762;2022-11-15T01:34:53;31.55;;;22.83;;
28629;SDS011;15817;42.130;24.762;2022-11-15T01:37:38;30.02;;;21.75;;
28629;SDS011;15817;42.130;24.762;2022-11-15T01:40:24;33.50;;;21.55;;
28629;SDS011;15817;42.130;24.762;2022-11-15T01:49:24;29.48;;;20.65;;
28629;SDS011;15817;42.130;24.762;2022-11-15T01:52:15;31.73;;;21.75;;
28629;SDS011;15817;42.130;24.762;2022-11-15T01:58:19;31.90;;;21.95;;
28629;SDS011;15817;42.130;24.762;2022-11-15T02:01:04;36.15;;;23.25;;
28629;SDS011;15817;42.130;24.762;2022-11-15T02:03:50;31.38;;;21.77;;
28629;SDS011;15817;42.130;24.762;2022-11-15T02:06:41;33.78;;;22.33;;
28629;SDS011;15817;42.130;24.762;2022-11-15T02:09:27;32.47;;;22.05;;
28629;SDS011;15817;42.130;24.762;2022-11-15T02:12:11;31.02;;;21.10;;
28629;SDS011;15817;42.130;24.762;2022-11-15T02:15:02;36.10;;;22.45;;
28629;SDS011;15817;42.130;24.762;2022-11-15T02:23:53;29.45;;;21.58;;
28629;SDS011;15817;42.130;24.762;2022-11-15T02:35:42;32.70;;;21.83;;
28629;SDS011;15817;42.130;24.762;2022-11-15T02:44:40;33.28;;;21.77;;
28629;SDS011;15817;42.130;24.762;2022-11-15T02:47:29;35.03;;;22.48;;
28629;SDS011;15817;42.130;24.762;2022-11-15T02:50:19;34.35;;;22.77;;
28629;SDS011;15817;42.130;24.762;2022-11-15T02:53:08;35.55;;;21.88;;
28629;SDS011;15817;42.130;24.762;2022-11-15T02:55:53;35.90;;;21.75;;
28629;SDS011;15817;42.130;24.762;2022-11-15T02:58:45;38.13;;;22.40;;
28629;SDS011;15817;42.130;24.762;2022-11-15T03:13:56;31.05;;;21.65;;
28629;SDS011;15817;42.130;24.762;2022-11-15T03:16:51;31.75;;;22.20;;
28629;SDS011;15817;42.130;24.762;2022-11-15T03:19:47;38.22;;;22.35;;
28629;SDS011;15817;42.130;24.762;2022-11-15T03:22:35;35.75;;;22.60;;
28629;SDS011;15817;42.130;24.762;2022-11-15T03:25:23;32.53;;;21.27;;
28629;SDS011;15817;42.130;24.762;2022-11-15T03:28:15;41.53;;;23.27;;
28629;SDS011;15817;42.130;24.762;2022-11-15T03:31:04;37.47;;;22.08;;
28629;SDS011;15817;42.130;24.762;2022-11-15T03:34:10;28.77;;;20.33;;
28629;SDS011;15817;42.130;24.762;2022-11-15T03:37:09;28.67;;;20.17;;
28629;SDS011;15817;42.130;24.762;2022-11-15T03:39:56;29.10;;;18.73;;
28629;SDS011;15817;42.130;24.762;2022-11-15T03:42:48;30.92;;;18.52;;
28629;SDS011;15817;42.130;24.762;2022-11-15T03:46:00;27.83;;;16.95;;
28629;SDS011;15817;42.130;24.762;2022-11-15T03:48:51;23.50;;;15.70;;
28629;SDS011;15817;42.130;24.762;2022-11-15T03:51:40;25.48;;;15.52;;
28629;SDS011;15817;42.130;24.762;2022-11-15T03:54:24;27.23;;;17.33;;
28629;SDS011;15817;42.130;24.762;2022-11-15T03:57:08;28.48;;;18.27;;
28629;SDS011;15817;42.130;24.762;2022-11-15T03:59:52;25.10;;;17.13;;
28629;SDS011;15817;42.130;24.762;2022-11-15T04:02:37;29.63;;;17.92;;
28629;SDS011;15817;42.130;24.762;2022-11-15T04:05:23;24.65;;;17.00;;
28629;SDS011;15817;42.130;24.762;2022-11-15T04:08:08;26.27;;;17.50;;
28629;SDS011;15817;42.130;24.762;2022-11-15T04:10:53;34.92;;;19.35;;
28629;SDS011;15817;42.130;24.762;2022-11-15T04:13:37;31.40;;;20.08;;
28629;SDS011;15817;42.130;24.762;2022-11-15T04:16:22;30.25;;;20.38;;
28629;SDS011;15817;42.130;24.762;2022-11-15T04:19:07;40.45;;;20.58;;
28629;SDS011;15817;42.130;24.762;2022-11-15T04:22:10;34.97;;;20.63;;
28629;SDS011;15817;42.130;24.762;2022-11-15T04:25:23;32.17;;;19.90;;
28629;SDS011;15817;42.130;24.762;2022-11-15T04:28:08;30.77;;;18.88;;
28629;SDS011;15817;42.130;24.762;2022-11-15T04:30:52;26.95;;;18.95;;
28629;SDS011;15817;42.130;24.762;2022-11-15T04:33:36;26.67;;;17.40;;
28629;SDS011;15817;42.130;24.762;2022-11-15T04:36:21;30.65;;;19.00;;
28629;SDS011;15817;42.130;24.762;2022-11-15T04:39:24;33.70;;;19.73;;
28629;SDS011;15817;42.130;24.762;2022-11-15T04:42:12;28.73;;;18.60;;
28629;SDS011;15817;42.130;24.762;2022-11-15T04:44:56;28.88;;;18.25;;
28629;SDS011;15817;42.130;24.762;2022-11-15T04:47:42;29.15;;;18.75;;
28629;SDS011;15817;42.130;24.762;2022-11-15T04:50:27;31.90;;;20.52;;
28629;SDS011;15817;42.130;24.762;2022-11-15T04:53:11;32.05;;;19.33;;
28629;SDS011;15817;42.130;24.762;2022-11-15T04:55:55;32.75;;;20.02;;
28629;SDS011;15817;42.130;24.762;2022-11-15T04:58:42;31.70;;;19.60;;
28629;SDS011;15817;42.130;24.762;2022-11-15T05:01:27;28.25;;;18.75;;
28629;SDS011;15817;42.130;24.762;2022-11-15T05:04:11;28.27;;;17.35;;
28629;SDS011;15817;42.130;24.762;2022-11-15T05:07:13;30.08;;;18.48;;
28629;SDS011;15817;42.130;24.762;2022-11-15T05:09:57;29.98;;;17.90;;
28629;SDS011;15817;42.130;24.762;2022-11-15T05:12:41;25.83;;;17.80;;
28629;SDS011;15817;42.130;24.762;2022-11-15T05:15:26;29.08;;;18.73;;
28629;SDS011;15817;42.130;24.762;2022-11-15T05:18:11;28.10;;;18.90;;
28629;SDS011;15817;42.130;24.762;2022-11-15T05:21:04;34.28;;;19.50;;
28629;SDS011;15817;42.130;24.762;2022-11-15T05:23:50;32.33;;;18.10;;
28629;SDS011;15817;42.130;24.762;2022-11-15T05:26:34;30.20;;;18.60;;
28629;SDS011;15817;42.130;24.762;2022-11-15T05:29:19;29.38;;;19.60;;
28629;SDS011;15817;42.130;24.762;2022-11-15T05:32:06;31.10;;;19.75;;
28629;SDS011;15817;42.130;24.762;2022-11-15T05:34:54;32.25;;;18.88;;
28629;SDS011;15817;42.130;24.762;2022-11-15T05:37:39;38.47;;;19.13;;
28629;SDS011;15817;42.130;24.762;2022-11-15T05:40:24;31.13;;;19.58;;
28629;SDS011;15817;42.130;24.762;2022-11-15T05:43:09;31.30;;;19.55;;
28629;SDS011;15817;42.130;24.762;2022-11-15T05:45:54;36.45;;;20.38;;
28629;SDS011;15817;42.130;24.762;2022-11-15T05:48:38;30.52;;;18.50;;
28629;SDS011;15817;42.130;24.762;2022-11-15T05:51:27;35.22;;;19.77;;
28629;SDS011;15817;42.130;24.762;2022-11-15T05:54:13;37.22;;;18.95;;
28629;SDS011;15817;42.130;24.762;2022-11-15T05:56:58;28.00;;;16.27;;
28629;SDS011;15817;42.130;24.762;2022-11-15T05:59:45;25.92;;;15.88;;
28629;SDS011;15817;42.130;24.762;2022-11-15T06:02:30;21.13;;;14.90;;
28629;SDS011;15817;42.130;24.762;2022-11-15T06:05:14;26.17;;;15.75;;
28629;SDS011;15817;42.130;24.762;2022-11-15T06:07:59;24.15;;;15.43;;
28629;SDS011;15817;42.130;24.762;2022-11-15T06:10:43;23.55;;;15.15;;
28629;SDS011;15817;42.130;24.762;2022-11-15T06:13:35;27.73;;;16.15;;
28629;SDS011;15817;42.130;24.762;2022-11-15T06:16:20;26.77;;;15.93;;
28629;SDS011;15817;42.130;24.762;2022-11-15T06:19:05;30.95;;;17.63;;
28629;SDS011;15817;42.130;24.762;2022-11-15T06:21:50;30.98;;;17.17;;
28629;SDS011;15817;42.130;24.762;2022-11-15T06:24:37;31.55;;;19.27;;
28629;SDS011;15817;42.130;24.762;2022-11-15T06:27:21;43.38;;;19.52;;
28629;SDS011;15817;42.130;24.762;2022-11-15T06:30:06;39.58;;;20.33;;
28629;SDS011;15817;42.130;24.762;2022-11-15T06:32:51;55.00;;;21.15;;
28629;SDS011;15817;42.130;24.762;2022-11-15T06:35:35;57.92;;;19.70;;
28629;SDS011;15817;42.130;24.762;2022-11-15T06:38:20;37.35;;;19.25;;
28629;SDS011;15817;42.130;24.762;2022-11-15T06:41:05;38.67;;;20.10;;
28629;SDS011;15817;42.130;24.762;2022-11-15T06:43:51;35.42;;;19.65;;
28629;SDS011;15817;42.130;24.762;2022-11-15T06:46:36;34.35;;;19.15;;
28629;SDS011;15817;42.130;24.762;2022-11-15T06:49:20;32.58;;;19.10;;
28629;SDS011;15817;42.130;24.762;2022-11-15T06:52:05;42.03;;;20.55;;
28629;SDS011;15817;42.130;24.762;2022-11-15T06:54:49;37.10;;;19.98;;
28629;SDS011;15817;42.130;24.762;2022-11-15T06:57:34;34.63;;;19.88;;
28629;SDS011;15817;42.130;24.762;2022-11-15T07:00:21;33.10;;;20.75;;
28629;SDS011;15817;42.130;24.762;2022-11-15T07:03:18;32.22;;;18.08;;
28629;SDS011;15817;42.130;24.762;2022-11-15T07:06:05;31.02;;;17.73;;
28629;SDS011;15817;42.130;24.762;2022-11-15T07:08:50;33.05;;;17.73;;
28629;SDS011;15817;42.130;24.762;2022-11-15T07:11:35;30.42;;;17.52;;
28629;SDS011;15817;42.130;24.762;2022-11-15T07:14:19;30.70;;;16.98;;
28629;SDS011;15817;42.130;24.762;2022-11-15T07:17:04;26.50;;;16.23;;
28629;SDS011;15817;42.130;24.762;2022-11-15T07:19:49;26.85;;;16.65;;
28629;SDS011;15817;42.130;24.762;2022-11-15T07:22:33;23.25;;;15.27;;
28629;SDS011;15817;42.130;24.762;2022-11-15T07:25:17;24.13;;;14.95;;
28629;SDS011;15817;42.130;24.762;2022-11-15T07:28:02;23.13;;;14.82;;
28629;SDS011;15817;42.130;24.762;2022-11-15T07:30:46;25.30;;;15.05;;
28629;SDS011;15817;42.130;24.762;2022-11-15T07:33:31;23.15;;;15.38;;
28629;SDS011;15817;42.130;24.762;2022-11-15T07:36:15;24.25;;;15.43;;
28629;SDS011;15817;42.130;24.762;2022-11-15T07:39:00;20.85;;;14.95;;
28629;SDS011;15817;42.130;24.762;2022-11-15T07:41:44;22.70;;;16.15;;
28629;SDS011;15817;42.130;24.762;2022-11-15T07:44:30;25.02;;;15.70;;
28629;SDS011;15817;42.130;24.762;2022-11-15T07:47:14;27.23;;;17.27;;
28629;SDS011;15817;42.130;24.762;2022-11-15T07:49:58;25.52;;;16.88;;
28629;SDS011;15817;42.130;24.762;2022-11-15T07:52:43;23.60;;;15.45;;
28629;SDS011;15817;42.130;24.762;2022-11-15T07:55:30;23.67;;;15.65;;
28629;SDS011;15817;42.130;24.762;2022-11-15T07:58:15;28.75;;;16.73;;
28629;SDS011;15817;42.130;24.762;2022-11-15T08:01:03;31.55;;;17.27;;
28629;SDS011;15817;42.130;24.762;2022-11-15T08:03:48;28.88;;;16.77;;
28629;SDS011;15817;42.130;24.762;2022-11-15T08:06:33;29.35;;;15.90;;
28629;SDS011;15817;42.130;24.762;2022-11-15T08:09:17;36.03;;;16.13;;
28629;SDS011;15817;42.130;24.762;2022-11-15T08:12:02;25.48;;;17.27;;
28629;SDS011;15817;42.130;24.762;2022-11-15T08:14:46;31.77;;;17.05;;
28629;SDS011;15817;42.130;24.762;2022-11-15T08:17:30;30.30;;;16.67;;
28629;SDS011;15817;42.130;24.762;2022-11-15T08:20:16;23.40;;;16.55;;
28629;SDS011;15817;42.130;24.762;2022-11-15T08:23:01;27.70;;;17.23;;
28629;SDS011;15817;42.130;24.762;2022-11-15T08:25:50;23.80;;;16.15;;
28629;SDS011;15817;42.130;24.762;2022-11-15T08:28:34;27.27;;;16.42;;
28629;SDS011;15817;42.130;24.762;2022-11-15T08:31:19;28.25;;;17.73;;
28629;SDS011;15817;42.130;24.762;2022-11-15T08:34:05;31.77;;;18.08;;
28629;SDS011;15817;42.130;24.762;2022-11-15T08:36:50;27.08;;;17.20;;
28629;SDS011;15817;42.130;24.762;2022-11-15T08:39:34;31.90;;;19.52;;
28629;SDS011;15817;42.130;24.762;2022-11-15T08:42:18;28.40;;;18.23;;
28629;SDS011;15817;42.130;24.762;2022-11-15T08:45:03;32.42;;;19.30;;
28629;SDS011;15817;42.130;24.762;2022-11-15T08:47:47;27.80;;;19.15;;
28629;SDS011;15817;42.130;24.762;2022-11-15T08:50:32;31.73;;;20.13;;
28629;SDS011;15817;42.130;24.762;2022-11-15T08:53:16;32.13;;;20.45;;
28629;SDS011;15817;42.130;24.762;2022-11-15T08:56:00;30.67;;;20.63;;
28629;SDS011;15817;42.130;24.762;2022-11-15T08:58:45;38.17;;;22.08;;
28629;SDS011;15817;42.130;24.762;2022-11-15T09:01:30;30.10;;;19.35;;
28629;SDS011;15817;42.130;24.762;2022-11-15T09:04:17;41.70;;;21.77;;
28629;SDS011;15817;42.130;24.762;2022-11-15T09:07:01;32.90;;;21.55;;
28629;SDS011;15817;42.130;24.762;2022-11-15T09:09:45;32.15;;;22.15;;
28629;SDS011;15817;42.130;24.762;2022-11-15T09:12:29;30.92;;;21.60;;
28629;SDS011;15817;42.130;24.762;2022-11-15T09:15:14;34.13;;;22.13;;
28629;SDS011;15817;42.130;24.762;2022-11-15T09:17:59;32.25;;;21.50;;
28629;SDS011;15817;42.130;24.762;2022-11-15T09:20:43;32.53;;;21.50;;
28629;SDS011;15817;42.130;24.762;2022-11-15T09:23:27;31.67;;;21.73;;
28629;SDS011;15817;42.130;24.762;2022-11-15T09:26:12;33.08;;;20.38;;
28629;SDS011;15817;42.130;24.762;2022-11-15T09:28:57;35.35;;;21.85;;
28629;SDS011;15817;42.130;24.762;2022-11-15T09:31:41;31.77;;;20.65;;
28629;SDS011;15817;42.130;24.762;2022-11-15T09:34:25;35.22;;;21.83;;
28629;SDS011;15817;42.130;24.762;2022-11-15T09:37:09;31.42;;;21.63;;
28629;SDS011;15817;42.130;24.762;2022-11-15T09:39:54;31.50;;;21.55;;
28629;SDS011;15817;42.130;24.762;2022-11-15T09:42:48;33.60;;;21.77;;
28629;SDS011;15817;42.130;24.762;2022-11-15T09:45:41;35.63;;;21.05;;
28629;SDS011;15817;42.130;24.762;2022-11-15T09:48:31;32.53;;;22.38;;
28629;SDS011;15817;42.130;24.762;2022-11-15T09:51:32;33.17;;;21.38;;
28629;SDS011;15817;42.130;24.762;2022-11-15T09:54:05;35.80;;;22.42;;
28629;SDS011;15817;42.130;24.762;2022-11-15T09:56:40;32.03;;;22.40;;
28629;SDS011;15817;42.130;24.762;2022-11-15T10:04:51;31.35;;;22.92;;
28629;SDS011;15817;42.130;24.762;2022-11-15T10:07:22;33.28;;;23.33;;
28629;SDS011;15817;42.130;24.762;2022-11-15T10:10:00;35.25;;;22.92;;
28629;SDS011;15817;42.130;24.762;2022-11-15T10:12:37;31.75;;;23.00;;
28629;SDS011;15817;42.130;24.762;2022-11-15T10:15:11;30.00;;;21.88;;
28629;SDS011;15817;42.130;24.762;2022-11-15T10:17:49;32.05;;;22.85;;
28629;SDS011;15817;42.130;24.762;2022-11-15T10:20:34;34.78;;;23.30;;
28629;SDS011;15817;42.130;24.762;2022-11-15T10:23:27;32.55;;;23.23;;
28629;SDS011;15817;42.130;24.762;2022-11-15T10:25:56;36.85;;;22.60;;
28629;SDS011;15817;42.130;24.762;2022-11-15T10:28:27;30.40;;;22.80;;
28629;SDS011;15817;42.130;24.762;2022-11-15T10:30:57;31.83;;;22.58;;
28629;SDS011;15817;42.130;24.762;2022-11-15T10:33:32;35.50;;;22.20;;
28629;SDS011;15817;42.130;24.762;2022-11-15T10:46:37;32.78;;;23.00;;
28629;SDS011;15817;42.130;24.762;2022-11-15T10:49:15;35.92;;;23.90;;
28629;SDS011;15817;42.130;24.762;2022-11-15T10:51:42;28.13;;;22.05;;
28629;SDS011;15817;42.130;24.762;2022-11-15T10:54:16;29.58;;;21.33;;
28629;SDS011;15817;42.130;24.762;2022-11-15T10:56:51;30.58;;;21.60;;
28629;SDS011;15817;42.130;24.762;2022-11-15T10:59:29;28.90;;;21.00;;
28629;SDS011;15817;42.130;24.762;2022-11-15T11:01:57;30.40;;;22.65;;
28629;SDS011;15817;42.130;24.762;2022-11-15T11:04:23;30.35;;;22.75;;
28629;SDS011;15817;42.130;24.762;2022-11-15T11:06:56;32.33;;;22.38;;
28629;SDS011;15817;42.130;24.762;2022-11-15T11:09:31;37.08;;;23.08;;
28629;SDS011;15817;42.130;24.762;2022-11-15T11:12:01;31.98;;;22.63;;
28629;SDS011;15817;42.130;24.762;2022-11-15T11:14:29;37.88;;;23.08;;
28629;SDS011;15817;42.130;24.762;2022-11-15T11:36:46;31.00;;;22.42;;
28629;SDS011;15817;42.130;24.762;2022-11-15T11:45:30;32.03;;;22.90;;
28629;SDS011;15817;42.130;24.762;2022-11-15T11:50:33;30.00;;;21.50;;
28629;SDS011;15817;42.130;24.762;2022-11-15T11:53:11;26.83;;;20.67;;
28629;SDS011;15817;42.130;24.762;2022-11-15T12:03:43;29.13;;;21.85;;
28629;SDS011;15817;42.130;24.762;2022-11-15T12:06:22;34.80;;;22.63;;
28629;SDS011;15817;42.130;24.762;2022-11-15T12:09:17;28.10;;;22.35;;
28629;SDS011;15817;42.130;24.762;2022-11-15T12:12:02;34.30;;;23.50;;
28629;SDS011;15817;42.130;24.762;2022-11-15T12:17:25;28.70;;;21.55;;
28629;SDS011;15817;42.130;24.762;2022-11-15T12:19:55;28.02;;;21.45;;
28629;SDS011;15817;42.130;24.762;2022-11-15T12:22:24;29.05;;;20.83;;
28629;SDS011;15817;42.130;24.762;2022-11-15T12:25:14;31.00;;;21.35;;
28629;SDS011;15817;42.130;24.762;2022-11-15T12:28:01;30.58;;;21.23;;
28629;SDS011;15817;42.130;24.762;2022-11-15T12:30:54;28.50;;;21.58;;
28629;SDS011;15817;42.130;24.762;2022-11-15T12:33:29;29.25;;;20.75;;
28629;SDS011;15817;42.130;24.762;2022-11-15T12:36:04;29.10;;;21.92;;
28629;SDS011;15817;42.130;24.762;2022-11-15T12:41:25;30.95;;;22.27;;
28629;SDS011;15817;42.130;24.762;2022-11-15T12:43:53;26.95;;;21.10;;
28629;SDS011;15817;42.130;24.762;2022-11-15T12:48:52;28.60;;;21.10;;
28629;SDS011;15817;42.130;24.762;2022-11-15T13:15:54;27.25;;;20.92;;
28629;SDS011;15817;42.130;24.762;2022-11-15T13:18:30;27.70;;;21.60;;
28629;SDS011;15817;42.130;24.762;2022-11-15T13:21:32;26.10;;;20.70;;
28629;SDS011;15817;42.130;24.762;2022-11-15T13:24:44;27.33;;;21.15;;
28629;SDS011;15817;42.130;24.762;2022-11-15T13:27:21;27.25;;;21.67;;
28629;SDS011;15817;42.130;24.762;2022-11-15T13:29:47;30.35;;;21.98;;
28629;SDS011;15817;42.130;24.762;2022-11-15T13:32:14;28.30;;;21.60;;
28629;SDS011;15817;42.130;24.762;2022-11-15T13:34:48;31.05;;;21.98;;
28629;SDS011;15817;42.130;24.762;2022-11-15T13:37:27;28.13;;;21.65;;
28629;SDS011;15817;42.130;24.762;2022-11-15T13:40:27;28.92;;;21.50;;
28629;SDS011;15817;42.130;24.762;2022-11-15T13:47:32;32.50;;;22.25;;
28629;SDS011;15817;42.130;24.762;2022-11-15T13:49:58;29.92;;;22.70;;
28629;SDS011;15817;42.130;24.762;2022-11-15T13:52:32;32.97;;;24.00;;
28629;SDS011;15817;42.130;24.762;2022-11-15T13:55:23;31.52;;;23.40;;
28629;SDS011;15817;42.130;24.762;2022-11-15T14:00:59;30.05;;;24.02;;
28629;SDS011;15817;42.130;24.762;2022-11-15T14:04:04;30.85;;;23.20;;
28629;SDS011;15817;42.130;24.762;2022-11-15T14:09:54;36.28;;;25.75;;
28629;SDS011;15817;42.130;24.762;2022-11-15T14:15:29;27.77;;;23.15;;
28629;SDS011;15817;42.130;24.762;2022-11-15T14:17:57;33.72;;;24.58;;
28629;SDS011;15817;42.130;24.762;2022-11-15T14:20:37;30.65;;;23.52;;
28629;SDS011;15817;42.130;24.762;2022-11-15T14:23:18;32.05;;;22.98;;
28629;SDS011;15817;42.130;24.762;2022-11-15T14:25:55;33.20;;;24.58;;
28629;SDS011;15817;42.130;24.762;2022-11-15T14:30:48;34.75;;;24.63;;
28629;SDS011;15817;42.130;24.762;2022-11-15T14:33:21;32.47;;;23.52;;
28629;SDS011;15817;42.130;24.762;2022-11-15T14:35:50;33.90;;;25.48;;
28629;SDS011;15817;42.130;24.762;2022-11-15T14:38:17;33.53;;;23.00;;
28629;SDS011;15817;42.130;24.762;2022-11-15T14:40:43;33.13;;;23.48;;
28629;SDS011;15817;42.130;24.762;2022-11-15T14:43:10;39.95;;;23.90;;
28629;SDS011;15817;42.130;24.762;2022-11-15T14:45:39;32.20;;;24.23;;
28629;SDS011;15817;42.130;24.762;2022-11-15T14:48:08;33.25;;;24.25;;
28629;SDS011;15817;42.130;24.762;2022-11-15T14:50:34;38.60;;;25.77;;
28629;SDS011;15817;42.130;24.762;2022-11-15T14:53:10;36.35;;;26.23;;
28629;SDS011;15817;42.130;24.762;2022-11-15T14:55:43;33.00;;;24.65;;
28629;SDS011;15817;42.130;24.762;2022-11-15T14:58:09;41.00;;;26.85;;
28629;SDS011;15817;42.130;24.762;2022-11-15T15:00:35;33.03;;;24.30;;
28629;SDS011;15817;42.130;24.762;2022-11-15T15:03:08;38.97;;;26.05;;
28629;SDS011;15817;42.130;24.762;2022-11-15T15:05:35;34.28;;;25.60;;
28629;SDS011;15817;42.130;24.762;2022-11-15T15:08:01;35.50;;;24.55;;
28629;SDS011;15817;42.130;24.762;2022-11-15T15:10:45;36.22;;;27.00;;
28629;SDS011;15817;42.130;24.762;2022-11-15T15:13:21;38.70;;;26.48;;
28629;SDS011;15817;42.130;24.762;2022-11-15T15:16:00;37.40;;;26.13;;
28629;SDS011;15817;42.130;24.762;2022-11-15T15:18:26;47.22;;;32.40;;
28629;SDS011;15817;42.130;24.762;2022-11-15T15:20:58;42.55;;;30.02;;
28629;SDS011;15817;42.130;24.762;2022-11-15T15:23:38;41.40;;;30.20;;
28629;SDS011;15817;42.130;24.762;2022-11-15T15:26:10;38.78;;;27.63;;
28629;SDS011;15817;42.130;24.762;2022-11-15T15:28:35;39.10;;;27.58;;
28629;SDS011;15817;42.130;24.762;2022-11-15T15:31:02;38.40;;;27.13;;
28629;SDS011;15817;42.130;24.762;2022-11-15T15:33:31;36.63;;;26.80;;
28629;SDS011;15817;42.130;24.762;2022-11-15T15:35:57;39.38;;;27.42;;
28629;SDS011;15817;42.130;24.762;2022-11-15T15:38:27;36.22;;;26.70;;
28629;SDS011;15817;42.130;24.762;2022-11-15T15:40:53;39.85;;;29.58;;
28629;SDS011;15817;42.130;24.762;2022-11-15T15:43:20;41.83;;;28.02;;
28629;SDS011;15817;42.130;24.762;2022-11-15T15:45:45;38.03;;;26.80;;
28629;SDS011;15817;42.130;24.762;2022-11-15T15:48:12;38.88;;;27.75;;
28629;SDS011;15817;42.130;24.762;2022-11-15T15:50:39;36.72;;;26.45;;
28629;SDS011;15817;42.130;24.762;2022-11-15T15:53:16;41.42;;;27.65;;
28629;SDS011;15817;42.130;24.762;2022-11-15T15:55:42;37.28;;;27.60;;
28629;SDS011;15817;42.130;24.762;2022-11-15T15:58:08;36.67;;;27.33;;
28629;SDS011;15817;42.130;24.762;2022-11-15T16:00:34;38.13;;;27.58;;
28629;SDS011;15817;42.130;24.762;2022-11-15T16:03:02;37.45;;;27.25;;
28629;SDS011;15817;42.130;24.762;2022-11-15T16:05:36;36.80;;;27.67;;
28629;SDS011;15817;42.130;24.762;2022-11-15T16:08:04;41.75;;;27.63;;
28629;SDS011;15817;42.130;24.762;2022-11-15T16:10:31;42.33;;;28.92;;
28629;SDS011;15817;42.130;24.762;2022-11-15T16:13:02;41.97;;;28.10;;
28629;SDS011;15817;42.130;24.762;2022-11-15T16:15:30;45.58;;;29.50;;
28629;SDS011;15817;42.130;24.762;2022-11-15T16:17:57;43.85;;;30.20;;
28629;SDS011;15817;42.130;24.762;2022-11-15T16:23:34;46.67;;;30.48;;
28629;SDS011;15817;42.130;24.762;2022-11-15T16:26:00;52.22;;;31.05;;
28629;SDS011;15817;42.130;24.762;2022-11-15T16:28:29;45.38;;;30.00;;
28629;SDS011;15817;42.130;24.762;2022-11-15T16:31:03;54.50;;;31.02;;
28629;SDS011;15817;42.130;24.762;2022-11-15T16:33:29;47.63;;;30.50;;
28629;SDS011;15817;42.130;24.762;2022-11-15T16:35:55;45.80;;;30.42;;
28629;SDS011;15817;42.130;24.762;2022-11-15T16:38:21;44.35;;;32.42;;
28629;SDS011;15817;42.130;24.762;2022-11-15T16:40:46;52.05;;;33.25;;
28629;SDS011;15817;42.130;24.762;2022-11-15T16:43:12;52.28;;;33.75;;
28629;SDS011;15817;42.130;24.762;2022-11-15T16:45:49;51.72;;;33.47;;
28629;SDS011;15817;42.130;24.762;2022-11-15T16:48:22;51.33;;;33.97;;
28629;SDS011;15817;42.130;24.762;2022-11-15T16:50:53;55.03;;;35.08;;
28629;SDS011;15817;42.130;24.762;2022-11-15T16:53:26;51.72;;;33.38;;
28629;SDS011;15817;42.130;24.762;2022-11-15T16:55:56;47.45;;;34.45;;
28629;SDS011;15817;42.130;24.762;2022-11-15T16:58:22;45.88;;;32.53;;
28629;SDS011;15817;42.130;24.762;2022-11-15T17:00:53;49.90;;;34.40;;
28629;SDS011;15817;42.130;24.762;2022-11-15T17:03:27;52.03;;;34.83;;
28629;SDS011;15817;42.130;24.762;2022-11-15T17:06:24;45.25;;;32.80;;
28629;SDS011;15817;42.130;24.762;2022-11-15T17:08:51;48.67;;;32.55;;
28629;SDS011;15817;42.130;24.762;2022-11-15T17:11:18;49.05;;;33.13;;
28629;SDS011;15817;42.130;24.762;2022-11-15T17:13:46;45.88;;;32.38;;
28629;SDS011;15817;42.130;24.762;2022-11-15T17:16:14;52.55;;;32.55;;
28629;SDS011;15817;42.130;24.762;2022-11-15T17:18:42;44.00;;;30.73;;
28629;SDS011;15817;42.130;24.762;2022-11-15T17:21:12;48.65;;;32.28;;
28629;SDS011;15817;42.130;24.762;2022-11-15T17:23:40;49.97;;;32.70;;
28629;SDS011;15817;42.130;24.762;2022-11-15T17:26:07;48.60;;;33.33;;
28629;SDS011;15817;42.130;24.762;2022-11-15T17:28:35;52.50;;;34.95;;
28629;SDS011;15817;42.130;24.762;2022-11-15T17:31:05;51.08;;;34.60;;
28629;SDS011;15817;42.130;24.762;2022-11-15T17:33:32;56.83;;;36.38;;
28629;SDS011;15817;42.130;24.762;2022-11-15T17:35:58;73.05;;;38.40;;
28629;SDS011;15817;42.130;24.762;2022-11-15T17:38:26;61.67;;;35.80;;
28629;SDS011;15817;42.130;24.762;2022-11-15T17:41:05;59.05;;;36.63;;
28629;SDS011;15817;42.130;24.762;2022-11-15T17:43:35;61.88;;;36.35;;
28629;SDS011;15817;42.130;24.762;2022-11-15T17:46:03;56.05;;;34.65;;
28629;SDS011;15817;42.130;24.762;2022-11-15T17:48:31;50.35;;;32.15;;
28629;SDS011;15817;42.130;24.762;2022-11-15T17:51:03;49.75;;;32.10;;
28629;SDS011;15817;42.130;24.762;2022-11-15T17:53:31;67.63;;;33.63;;